Weather History for Hot Springs, VA

Change the Weather History Date:

Saturday, August 17, 2013

  Actual Average Record
Temperature  
Mean Temperature 56 °F -  
Max Temperature 62 °F 74 °F 86 °F (1997)
Min Temperature 51 °F 59 °F 51 °F (2013)
Degree Days  
Heating Degree Days 8    
Growing Degree Days 6 (Base 50)    
Moisture  
Dew Point 54 °F    
Average Humidity 94    
Maximum Humidity 100    
Minimum Humidity 77    
Precipitation  
Precipitation 0.12 in - - ()
Sea Level Pressure  
Sea Level Pressure 30.33 in    
Wind  
Wind Speed 6 mph (East)    
Max Wind Speed 14 mph    
Max Gust Speed 20 mph    
Visibility 7 miles    
Events Fog , Rain    
Averages and records for this station are not official NWS values.
T = Trace of Precipitation, MM = Missing Value Source: NWS Daily Summary

Daily Weather History Graph

Daily Weather History Graph

Search for Another Location

Airport:

Trip Planner

Search our weather history database for the weather conditions in past years. The results will help you decide how hot, cold, wet, or windy it might be!

Date:

Astronomy

Aug. 17, 2013 Rise Set
Actual Time 6:36 AM EDT 8:09 PM EDT
Civil Twilight 6:08 AM EDT 8:37 PM EDT
Nautical Twilight 5:35 AM EDT 9:10 PM EDT
Astronomical Twilight 4:59 AM EDT 9:46 PM EDT
Moon 5:21 PM EDT (8/17) 2:39 AM EDT (8/17)
Length of Visible Light 14h 28m
Length of Day
13h 33m
Waxing Gibbous, 84% of the Moon is Illuminated
Aug 17
Waxing Gibbous
Aug 20
Full
Aug 28
Last Quarter
Sep 5
New
Sep 12
First Quarter

Hourly Weather History & Observations

Time (EDT) Temp. Dew Point Humidity Pressure Visibility Wind Dir Wind Speed Gust Speed Precip Events Conditions
12:15 AM 53.6 °F 53.6 °F 100% 30.32 in 7.0 mi SE 4.6 mph - N/A   Scattered Clouds
12:35 AM 53.6 °F 53.6 °F 100% 30.32 in 7.0 mi SSE 5.8 mph - N/A   Clear
12:55 AM 53.6 °F 53.6 °F 100% 30.32 in 7.0 mi SE 4.6 mph - N/A   Clear
1:15 AM 53.6 °F 53.6 °F 100% 30.32 in 7.0 mi SE 4.6 mph - N/A   Clear
1:35 AM 53.6 °F 53.6 °F 100% 30.32 in 5.0 mi SE 4.6 mph - N/A   Scattered Clouds
1:55 AM 53.6 °F 53.6 °F 100% 30.32 in 1.5 mi SE 4.6 mph - N/A   Overcast
2:15 AM 53.6 °F 53.6 °F 100% 30.31 in 0.8 mi ESE 4.6 mph - N/A   Overcast
2:35 AM 53.6 °F 53.6 °F 100% 30.31 in 5.0 mi ESE 4.6 mph - N/A   Overcast
2:55 AM 53.6 °F 53.6 °F 100% 30.31 in 7.0 mi ESE 4.6 mph - N/A   Overcast
3:15 AM 53.6 °F 53.6 °F 100% 30.31 in 10.0 mi ESE 4.6 mph - N/A   Overcast
3:35 AM 53.6 °F 53.6 °F 100% 30.31 in 7.0 mi Calm Calm - N/A   Mostly Cloudy
3:55 AM 53.6 °F 53.6 °F 100% 30.32 in 7.0 mi Calm Calm - N/A   Scattered Clouds
4:15 AM 53.6 °F 53.6 °F 100% 30.32 in 10.0 mi East 4.6 mph - N/A   Mostly Cloudy
4:35 AM 53.6 °F 53.6 °F 100% 30.31 in 10.0 mi East 5.8 mph - N/A   Mostly Cloudy
4:55 AM 53.6 °F 51.8 °F 94% 30.31 in 10.0 mi East 4.6 mph - N/A   Scattered Clouds
5:15 AM 51.8 °F 51.8 °F 100% 30.31 in 5.0 mi East 3.5 mph - N/A   Clear
5:35 AM 51.8 °F 51.8 °F 100% 30.31 in 10.0 mi East 3.5 mph - N/A   Clear
5:55 AM 51.8 °F 51.8 °F 100% 30.32 in 10.0 mi East 3.5 mph - N/A   Clear
6:15 AM 51.8 °F 51.8 °F 100% 30.32 in 10.0 mi ENE 3.5 mph - N/A   Clear
6:35 AM 51.8 °F 50.0 °F 94% 30.32 in 10.0 mi East 4.6 mph - N/A   Clear
6:55 AM 51.8 °F 51.8 °F 100% 30.33 in 10.0 mi East 6.9 mph - N/A   Clear
7:15 AM 53.6 °F 51.8 °F 94% 30.33 in 5.0 mi East 5.8 mph - N/A   Scattered Clouds
7:35 AM 51.8 °F 51.8 °F 100% 30.33 in 0.2 mi East 8.1 mph - N/A Fog Fog
7:55 AM 53.6 °F 53.6 °F 100% 30.33 in 1.5 mi East 8.1 mph - N/A   Overcast
8:15 AM 53.6 °F 53.6 °F 100% 30.33 in 7.0 mi East 9.2 mph - N/A   Mostly Cloudy
8:35 AM 53.6 °F 53.6 °F 100% 30.33 in 10.0 mi East 6.9 mph - N/A   Scattered Clouds
8:55 AM 55.4 °F 53.6 °F 94% 30.34 in 10.0 mi East 10.4 mph - N/A   Scattered Clouds
9:15 AM 53.6 °F 51.8 °F 94% 30.34 in 10.0 mi East 9.2 mph - N/A   Mostly Cloudy
9:35 AM 53.6 °F 51.8 °F 94% 30.34 in 10.0 mi East 9.2 mph - N/A   Overcast
9:55 AM 55.4 °F 53.6 °F 94% 30.34 in 10.0 mi East 8.1 mph - N/A   Overcast
10:15 AM 57.2 °F 53.6 °F 88% 30.35 in 10.0 mi East 9.2 mph - N/A   Mostly Cloudy
10:35 AM 57.2 °F 53.6 °F 88% 30.35 in 10.0 mi East 8.1 mph - N/A   Mostly Cloudy
10:55 AM 57.2 °F 53.6 °F 88% 30.35 in 10.0 mi East 8.1 mph - N/A   Mostly Cloudy
11:15 AM 57.2 °F 53.6 °F 88% 30.36 in 10.0 mi East 6.9 mph - N/A   Mostly Cloudy
11:35 AM 57.2 °F 55.4 °F 94% 30.36 in 10.0 mi East 6.9 mph - N/A   Overcast
11:55 AM 59.0 °F 55.4 °F 88% 30.36 in 10.0 mi East 8.1 mph - N/A   Overcast
12:15 PM 57.2 °F 55.4 °F 94% 30.36 in 10.0 mi ESE 8.1 mph - N/A   Overcast
12:35 PM 60.8 °F 55.4 °F 82% 30.36 in 10.0 mi East 8.1 mph - N/A   Overcast
12:55 PM 60.8 °F 55.4 °F 82% 30.35 in 10.0 mi East 9.2 mph - N/A   Mostly Cloudy
1:15 PM 62.6 °F 55.4 °F 77% 30.36 in 10.0 mi ESE 8.1 mph - N/A   Mostly Cloudy
1:35 PM 62.6 °F 55.4 °F 77% 30.35 in 10.0 mi East 5.8 mph - N/A   Overcast
1:55 PM 62.6 °F 57.2 °F 82% 30.35 in 10.0 mi East 6.9 mph - N/A   Overcast
2:15 PM 62.6 °F 55.4 °F 77% 30.35 in 10.0 mi East 4.6 mph - N/A   Overcast
2:35 PM 60.8 °F 55.4 °F 82% 30.34 in 10.0 mi East 5.8 mph - N/A   Overcast
2:55 PM 60.8 °F 55.4 °F 82% 30.34 in 10.0 mi East 5.8 mph - N/A   Overcast
3:15 PM 60.8 °F 55.4 °F 82% 30.33 in 10.0 mi East 6.9 mph - N/A   Overcast
3:35 PM 60.8 °F 55.4 °F 82% 30.33 in 10.0 mi ESE 6.9 mph - N/A   Overcast
3:55 PM 60.8 °F 55.4 °F 82% 30.32 in 10.0 mi East 5.8 mph - N/A   Overcast
4:15 PM 60.8 °F 55.4 °F 82% 30.33 in 10.0 mi East 4.6 mph - N/A   Overcast
4:35 PM 60.8 °F 55.4 °F 82% 30.34 in 7.0 mi East 6.9 mph - N/A   Overcast
4:55 PM 59.0 °F 55.4 °F 88% 30.34 in 7.0 mi East 8.1 mph - N/A   Overcast
5:15 PM 59.0 °F 55.4 °F 88% 30.34 in 10.0 mi ENE 10.4 mph - N/A   Overcast
5:35 PM 57.2 °F 55.4 °F 94% 30.34 in 5.0 mi ENE 8.1 mph - N/A   Overcast
5:55 PM 57.2 °F 55.4 °F 94% 30.34 in 4.0 mi East 6.9 mph - N/A Rain Rain
6:15 PM 57.2 °F 55.4 °F 94% 30.34 in 10.0 mi East 8.1 mph - N/A   Overcast
6:35 PM 57.2 °F 55.4 °F 94% 30.33 in 10.0 mi East 9.2 mph - N/A   Overcast
6:55 PM 57.2 °F 55.4 °F 94% 30.33 in 10.0 mi East 8.1 mph - N/A   Overcast
7:15 PM 57.2 °F 55.4 °F 94% 30.32 in 7.0 mi East 9.2 mph 16.1 mph N/A   Overcast
7:35 PM 57.2 °F 55.4 °F 94% 30.33 in 7.0 mi East 9.2 mph - N/A   Overcast
7:55 PM 57.2 °F 55.4 °F 94% 30.33 in 10.0 mi East 9.2 mph - N/A   Overcast
8:15 PM 57.2 °F 55.4 °F 94% 30.33 in 7.0 mi East 9.2 mph 16.1 mph N/A Rain Light Rain
8:35 PM 55.4 °F 55.4 °F 100% 30.32 in 5.0 mi East 10.4 mph 16.1 mph 0.02 in   Heavy Drizzle
8:55 PM 55.4 °F 55.4 °F 100% 30.33 in 2.5 mi East 10.4 mph 16.1 mph 0.01 in   Heavy Drizzle
9:15 PM 55.4 °F 55.4 °F 100% 30.33 in 0.2 mi East 10.4 mph 16.1 mph 0.01 in   Drizzle
9:35 PM 55.4 °F 55.4 °F 100% 30.33 in 0.2 mi East 11.5 mph 17.3 mph 0.02 in   Drizzle
9:55 PM 55.4 °F 55.4 °F 100% 30.33 in 0.2 mi East 12.7 mph 18.4 mph N/A Rain Light Rain
10:15 PM 55.4 °F 55.4 °F 100% 30.34 in 0.8 mi East 12.7 mph 19.6 mph 0.01 in   Drizzle
10:35 PM 55.4 °F 55.4 °F 100% 30.33 in 0.5 mi East 11.5 mph 18.4 mph 0.03 in Rain Light Rain
10:55 PM 55.4 °F 55.4 °F 100% 30.34 in 0.2 mi East 12.7 mph 17.3 mph 0.01 in   Drizzle
11:15 PM 53.6 °F 53.6 °F 100% 30.33 in 0.5 mi East 11.5 mph 18.4 mph 0.03 in Rain Light Rain
11:35 PM 53.6 °F 53.6 °F 100% 30.33 in 1.0 mi East 13.8 mph 19.6 mph 0.05 in Rain Light Rain
11:55 PM 53.6 °F 53.6 °F 100% 30.33 in 0.2 mi East 11.5 mph 18.4 mph N/A   Drizzle